createdAt,value
2019-05-06T00:01:54.169Z,9.26
2019-05-06T00:04:24.666Z,9.26
2019-05-06T00:06:55.066Z,9.20
2019-05-06T00:09:24.622Z,9.18
2019-05-06T00:11:54.609Z,9.19
2019-05-06T00:14:24.376Z,9.18
2019-05-06T00:16:54.767Z,9.17
2019-05-06T00:19:25.187Z,9.20
2019-05-06T00:21:54.690Z,9.18
2019-05-06T00:24:26.086Z,9.17
2019-05-06T00:27:14.167Z,9.19
2019-05-06T00:29:46.808Z,9.19
2019-05-06T00:32:15.216Z,9.09
2019-05-06T00:34:44.707Z,9.03
2019-05-06T00:37:15.620Z,9.05
2019-05-06T00:39:59.325Z,8.99
2019-05-06T00:42:34.658Z,8.96
2019-05-06T00:45:05.423Z,8.83
2019-05-06T00:47:34.932Z,8.78
2019-05-06T00:50:05.546Z,8.63
2019-05-06T00:52:36.102Z,8.68
2019-05-06T00:55:06.018Z,8.58
2019-05-06T00:57:44.890Z,8.60
2019-05-06T01:00:25.335Z,8.64
2019-05-06T01:02:54.829Z,8.68
2019-05-06T01:05:24.561Z,8.71
2019-05-06T01:07:54.894Z,8.80
2019-05-06T01:10:24.756Z,8.70
2019-05-06T01:13:11.991Z,8.69
2019-05-06T01:15:41.569Z,8.63
2019-05-06T01:18:11.083Z,8.52
2019-05-06T01:20:40.582Z,8.58
2019-05-06T01:23:10.101Z,8.57
2019-05-06T01:25:39.614Z,8.56
2019-05-06T01:28:09.119Z,8.65
2019-05-06T01:30:38.616Z,8.69
2019-05-06T01:33:08.128Z,8.75
2019-05-06T01:35:37.623Z,8.79
2019-05-06T01:38:30.286Z,8.76
2019-05-06T01:41:10.212Z,8.78
2019-05-06T01:43:39.827Z,8.70
2019-05-06T01:46:10.431Z,8.66
2019-05-06T01:48:48.963Z,8.77
2019-05-06T01:51:19.331Z,8.80
2019-05-06T01:53:49.185Z,8.76
2019-05-06T01:56:18.670Z,8.68
2019-05-06T01:58:48.250Z,8.62
2019-05-06T02:01:17.743Z,8.55
2019-05-06T02:03:47.243Z,8.66
2019-05-06T02:06:16.735Z,8.72
2019-05-06T02:08:46.233Z,8.72
2019-05-06T02:11:15.717Z,8.80
2019-05-06T02:13:45.285Z,8.85
2019-05-06T02:16:14.946Z,8.87
2019-05-06T02:18:45.087Z,8.87
2019-05-06T02:21:33.758Z,8.99
2019-05-06T02:24:05.210Z,9.06
2019-05-06T02:26:34.718Z,9.12
2019-05-06T02:29:06.044Z,9.12
2019-05-06T02:31:56.691Z,9.09
2019-05-06T02:34:31.785Z,9.16
2019-05-06T02:37:10.626Z,9.13
2019-05-06T02:39:43.574Z,9.14
2019-05-06T02:42:13.033Z,9.05
2019-05-06T02:44:44.123Z,9.02
2019-05-06T02:47:25.405Z,8.97
2019-05-06T02:49:58.187Z,8.92
2019-05-06T02:52:27.702Z,8.86
2019-05-06T02:54:57.220Z,8.90
2019-05-06T02:57:26.767Z,8.89
2019-05-06T02:59:56.286Z,8.89
2019-05-06T03:02:37.963Z,8.93
2019-05-06T03:04:56.982Z,8.99
2019-05-06T03:07:26.480Z,8.93
2019-05-06T03:09:55.992Z,8.92
2019-05-06T03:12:25.487Z,8.83
2019-05-06T03:14:54.989Z,8.85
2019-05-06T03:17:24.485Z,8.77
2019-05-06T03:19:55.639Z,8.71
2019-05-06T03:22:43.498Z,8.62
2019-05-06T03:25:23.843Z,8.52
2019-05-06T03:27:53.303Z,8.65
2019-05-06T03:30:25.667Z,8.72
2019-05-06T03:33:30.202Z,8.76
2019-05-06T03:35:42.546Z,8.73
2019-05-06T03:37:56.673Z,8.80
2019-05-06T03:40:26.286Z,8.84
2019-05-06T03:42:56.864Z,8.86
2019-05-06T03:45:37.223Z,8.81
2019-05-06T03:48:12.999Z,8.86
2019-05-06T03:50:44.085Z,8.85
2019-05-06T03:53:14.165Z,8.99
2019-05-06T03:55:47.013Z,8.92
2019-05-06T03:58:16.342Z,8.95
2019-05-06T04:00:47.132Z,8.96
2019-05-06T04:03:16.629Z,9.00
2019-05-06T04:05:46.727Z,9.07
2019-05-06T04:08:20.161Z,9.12
2019-05-06T04:10:47.488Z,9.16
2019-05-06T04:13:17.021Z,9.19
2019-05-06T04:16:13.834Z,9.21
2019-05-06T04:18:48.005Z,9.24
2019-05-06T04:21:25.989Z,9.23
2019-05-06T04:24:03.857Z,9.27
2019-05-06T04:26:53.428Z,9.33
2019-05-06T04:29:24.070Z,9.33
2019-05-06T04:31:54.235Z,9.29
2019-05-06T04:34:23.878Z,9.37
2019-05-06T04:36:53.670Z,9.37
2019-05-06T04:39:23.629Z,9.37
2019-05-06T04:41:54.026Z,9.49
2019-05-06T04:44:24.014Z,9.47
2019-05-06T04:46:54.452Z,9.51
2019-05-06T04:49:25.317Z,9.58
2019-05-06T04:51:55.048Z,9.56
2019-05-06T04:54:26.581Z,9.53
2019-05-06T04:56:56.790Z,9.58
2019-05-06T04:59:26.313Z,9.60
2019-05-06T05:01:55.816Z,9.64
2019-05-06T05:04:32.149Z,9.70
2019-05-06T05:06:56.681Z,9.73
2019-05-06T05:09:27.152Z,9.72
2019-05-06T05:12:04.153Z,9.69
2019-05-06T05:14:42.322Z,9.67
2019-05-06T05:17:43.726Z,9.71
2019-05-06T05:20:13.251Z,9.66
2019-05-06T05:22:42.774Z,9.64
2019-05-06T05:25:12.583Z,9.67
2019-05-06T05:27:42.288Z,9.63
2019-05-06T05:30:13.616Z,9.60
2019-05-06T05:32:43.207Z,9.71
2019-05-06T05:35:12.946Z,9.64
2019-05-06T05:37:42.455Z,9.75
2019-05-06T05:40:13.088Z,9.82
2019-05-06T05:42:58.991Z,9.95
2019-05-06T05:45:28.578Z,10.06
2019-05-06T05:48:00.275Z,10.09
2019-05-06T05:50:33.939Z,10.15
2019-05-06T05:53:03.977Z,10.14
2019-05-06T05:55:34.113Z,10.16
2019-05-06T05:58:03.802Z,10.16
2019-05-06T06:00:34.930Z,10.23
2019-05-06T06:03:07.021Z,10.24
2019-05-06T06:05:35.817Z,10.29
2019-05-06T06:08:05.364Z,10.44
2019-05-06T06:10:47.523Z,10.53
2019-05-06T06:13:17.258Z,10.51
2019-05-06T06:15:58.312Z,10.56
2019-05-06T06:18:39.179Z,10.66
2019-05-06T06:21:36.600Z,10.82
2019-05-06T06:24:22.569Z,10.84
2019-05-06T06:26:52.232Z,10.71
2019-05-06T06:29:22.788Z,10.96
2019-05-06T06:32:26.903Z,11.28
2019-05-06T06:35:11.323Z,11.29
2019-05-06T06:37:42.976Z,11.23
2019-05-06T06:40:13.168Z,11.30
2019-05-06T06:42:42.867Z,11.24
2019-05-06T06:45:12.525Z,11.20
2019-05-06T06:47:42.502Z,11.30
2019-05-06T06:50:12.811Z,11.22
2019-05-06T06:52:42.383Z,11.34
2019-05-06T06:55:12.946Z,11.41
2019-05-06T06:58:12.030Z,11.40
2019-05-06T07:00:48.939Z,11.47
2019-05-06T07:03:24.705Z,11.54
2019-05-06T07:06:07.719Z,11.60
2019-05-06T07:08:37.831Z,11.57
2019-05-06T07:11:08.988Z,11.65
2019-05-06T07:13:43.328Z,11.79
2019-05-06T07:16:12.839Z,11.80
2019-05-06T07:18:42.745Z,11.84
2019-05-06T07:21:18.261Z,11.87
2019-05-06T07:23:47.773Z,12.03
2019-05-06T07:26:19.174Z,12.29
2019-05-06T07:28:48.783Z,12.44
2019-05-06T07:31:22.651Z,12.70
2019-05-06T07:33:52.084Z,12.64
2019-05-06T07:36:22.813Z,12.95
2019-05-06T07:38:53.003Z,12.93
2019-05-06T07:41:36.167Z,13.10
2019-05-06T07:44:42.410Z,13.14
2019-05-06T07:47:18.138Z,12.78
2019-05-06T07:49:47.728Z,12.18
2019-05-06T07:52:17.524Z,12.42
2019-05-06T07:54:47.090Z,12.72
2019-05-06T07:57:16.642Z,12.54
2019-05-06T07:59:46.149Z,12.55
2019-05-06T08:02:15.708Z,12.81
2019-05-06T08:04:46.218Z,12.94
2019-05-06T08:07:15.722Z,12.91
2019-05-06T08:09:45.328Z,13.06
2019-05-06T08:12:14.838Z,12.92
2019-05-06T08:14:44.343Z,12.76
2019-05-06T08:17:24.563Z,12.89
2019-05-06T08:19:54.100Z,12.79
2019-05-06T08:22:42.652Z,12.89
2019-05-06T08:25:12.268Z,12.82
2019-05-06T08:27:42.558Z,12.77
2019-05-06T08:30:13.007Z,12.88
2019-05-06T08:32:42.701Z,13.26
2019-05-06T08:35:14.868Z,13.83
2019-05-06T08:37:44.620Z,13.90
2019-05-06T08:40:14.964Z,14.19
2019-05-06T08:42:44.467Z,14.49
2019-05-06T08:45:14.463Z,14.76
2019-05-06T08:47:43.994Z,14.93
2019-05-06T08:50:21.845Z,14.64
2019-05-06T08:53:05.314Z,14.17
2019-05-06T08:55:37.665Z,14.08
2019-05-06T08:58:07.399Z,14.62
2019-05-06T09:00:42.893Z,14.71
2019-05-06T09:03:14.250Z,14.21
2019-05-06T09:05:46.591Z,14.54
2019-05-06T09:08:16.082Z,14.45
2019-05-06T09:10:45.590Z,14.74
2019-05-06T09:13:15.238Z,14.70
2019-05-06T09:15:44.758Z,14.17
2019-05-06T09:18:14.268Z,14.44
2019-05-06T09:20:43.803Z,14.21
2019-05-06T09:23:13.342Z,14.21
2019-05-06T09:25:42.907Z,14.16
2019-05-06T09:28:18.184Z,13.98
2019-05-06T09:30:55.105Z,13.84
2019-05-06T09:33:30.290Z,13.91
2019-05-06T09:35:59.831Z,14.23
2019-05-06T09:38:29.364Z,14.53
2019-05-06T09:40:58.881Z,14.97
2019-05-06T09:43:28.434Z,15.26
2019-05-06T09:45:58.016Z,15.08
2019-05-06T09:48:33.832Z,15.27
2019-05-06T09:51:03.331Z,15.13
2019-05-06T09:53:54.818Z,15.04
2019-05-06T09:56:29.581Z,14.75
2019-05-06T09:58:59.216Z,14.71
2019-05-06T10:01:28.708Z,14.64
2019-05-06T10:03:59.312Z,14.83
2019-05-06T10:06:28.868Z,14.77
2019-05-06T10:08:58.418Z,14.67
2019-05-06T10:11:28.026Z,14.52
2019-05-06T10:13:57.541Z,14.98
2019-05-06T10:16:27.127Z,15.33
2019-05-06T10:18:56.648Z,15.23
2019-05-06T10:21:27.248Z,15.55
2019-05-06T10:23:57.018Z,15.56
2019-05-06T10:26:26.523Z,15.56
2019-05-06T10:29:14.057Z,15.39
2019-05-06T10:31:48.297Z,15.39
2019-05-06T10:34:17.806Z,15.23
2019-05-06T10:37:11.536Z,15.34
2019-05-06T10:39:34.159Z,15.44
2019-05-06T10:42:13.054Z,15.67
2019-05-06T10:44:56.453Z,15.25
2019-05-06T10:47:25.968Z,14.98
2019-05-06T10:49:55.502Z,15.05
2019-05-06T10:52:47.083Z,15.28
2019-05-06T10:55:16.589Z,15.68
2019-05-06T10:57:46.820Z,15.86
2019-05-06T11:00:18.334Z,15.66
2019-05-06T11:02:57.786Z,15.55
2019-05-06T11:05:27.313Z,15.36
2019-05-06T11:07:56.870Z,15.44
2019-05-06T11:10:32.153Z,15.71
2019-05-06T11:12:57.675Z,15.54
2019-05-06T11:15:27.229Z,15.37
2019-05-06T11:17:56.801Z,15.36
2019-05-06T11:20:26.320Z,15.01
2019-05-06T11:22:55.850Z,15.21
2019-05-06T11:25:25.694Z,15.49
2019-05-06T11:27:55.334Z,15.43
2019-05-06T11:30:43.973Z,15.47
2019-05-06T11:33:39.104Z,15.46
2019-05-06T11:36:23.081Z,15.32
2019-05-06T11:38:52.533Z,15.58
2019-05-06T11:41:23.392Z,15.68
2019-05-06T11:43:53.010Z,15.82
2019-05-06T11:46:22.917Z,16.00
2019-05-06T11:48:52.506Z,16.11
2019-05-06T11:51:23.703Z,15.77
2019-05-06T11:53:54.119Z,15.66
2019-05-06T11:56:23.811Z,15.40
2019-05-06T11:58:54.394Z,15.59
2019-05-06T12:01:27.072Z,15.83
2019-05-06T12:03:56.588Z,16.04
2019-05-06T12:06:26.097Z,16.27
2019-05-06T12:08:55.647Z,16.26
2019-05-06T12:11:25.192Z,16.52
2019-05-06T12:13:54.933Z,16.43
2019-05-06T12:16:26.124Z,16.05
2019-05-06T12:18:55.885Z,15.76
2019-05-06T12:21:25.370Z,15.46
2019-05-06T12:23:54.923Z,15.88
2019-05-06T12:26:24.440Z,15.98
2019-05-06T12:28:54.134Z,16.18
2019-05-06T12:31:23.713Z,15.89
2019-05-06T12:33:53.587Z,16.16
2019-05-06T12:36:23.879Z,16.24
2019-05-06T12:39:16.155Z,16.35
2019-05-06T12:42:15.408Z,16.40
2019-05-06T12:45:03.628Z,16.24
2019-05-06T12:47:53.353Z,16.05
2019-05-06T12:50:22.899Z,16.11
2019-05-06T12:52:52.860Z,16.20
2019-05-06T12:55:25.264Z,16.12
2019-05-06T12:57:55.223Z,16.34
2019-05-06T13:00:26.301Z,16.51
2019-05-06T13:02:55.783Z,16.40
2019-05-06T13:05:25.911Z,16.47
2019-05-06T13:07:55.418Z,16.44
2019-05-06T13:10:24.931Z,16.11
2019-05-06T13:12:59.963Z,15.71
2019-05-06T13:15:29.848Z,15.52
2019-05-06T13:17:59.464Z,15.19
2019-05-06T13:20:34.162Z,15.14
2019-05-06T13:23:17.564Z,15.25
2019-05-06T13:25:45.161Z,15.38
2019-05-06T13:28:14.232Z,15.44
2019-05-06T13:30:43.816Z,15.43
2019-05-06T13:33:44.286Z,13.72
2019-05-06T13:36:14.167Z,13.08
2019-05-06T13:38:43.713Z,12.96
2019-05-06T13:41:13.327Z,12.68
2019-05-06T13:43:47.250Z,12.58
2019-05-06T13:46:23.194Z,12.41
2019-05-06T13:48:59.072Z,12.29
2019-05-06T13:51:32.201Z,12.29
2019-05-06T13:54:02.590Z,12.57
2019-05-06T13:56:33.325Z,12.65
2019-05-06T13:59:05.128Z,12.84
2019-05-06T14:01:52.680Z,13.03
2019-05-06T14:04:24.073Z,13.18
2019-05-06T14:06:53.721Z,13.24
2019-05-06T14:09:31.110Z,13.19
2019-05-06T14:11:54.472Z,13.02
2019-05-06T14:14:24.043Z,13.21
2019-05-06T14:16:53.564Z,13.01
2019-05-06T14:19:23.065Z,13.25
2019-05-06T14:21:52.587Z,13.27
2019-05-06T14:24:22.407Z,13.42
2019-05-06T14:27:02.582Z,13.40
2019-05-06T14:29:38.107Z,13.39
2019-05-06T14:32:07.666Z,13.40
2019-05-06T14:34:37.172Z,13.12
2019-05-06T14:37:06.704Z,12.98
2019-05-06T14:39:52.263Z,12.76
2019-05-06T14:42:10.277Z,13.04
2019-05-06T14:44:39.810Z,13.23
2019-05-06T14:47:15.242Z,13.33
2019-05-06T14:49:44.751Z,12.73
2019-05-06T14:52:14.272Z,12.42
2019-05-06T14:54:53.170Z,12.53
2019-05-06T14:57:24.032Z,12.36
2019-05-06T14:59:55.641Z,12.49
2019-05-06T15:02:27.410Z,12.24
2019-05-06T15:04:57.875Z,12.14
2019-05-06T15:07:27.390Z,12.41
2019-05-06T15:10:14.912Z,12.30
2019-05-06T15:12:28.140Z,12.34
2019-05-06T15:14:57.665Z,12.60
2019-05-06T15:17:27.230Z,12.75
2019-05-06T15:19:57.258Z,12.77
2019-05-06T15:22:26.829Z,13.02
2019-05-06T15:24:56.337Z,13.00
2019-05-06T15:27:25.828Z,13.27
2019-05-06T15:29:57.738Z,13.48
2019-05-06T15:32:33.760Z,13.71
2019-05-06T15:35:22.329Z,13.88
2019-05-06T15:37:57.733Z,14.09
2019-05-06T15:40:32.916Z,14.18
2019-05-06T15:42:58.550Z,14.24
2019-05-06T15:45:28.091Z,14.22
2019-05-06T15:47:57.636Z,14.29
2019-05-06T15:50:27.148Z,14.32
2019-05-06T15:52:56.670Z,14.38
2019-05-06T15:55:26.177Z,14.48
2019-05-06T15:57:55.841Z,14.42
2019-05-06T16:00:26.811Z,14.36
2019-05-06T16:02:56.341Z,14.26
2019-05-06T16:05:26.672Z,14.10
2019-05-06T16:07:57.339Z,14.09
2019-05-06T16:10:26.919Z,13.69
2019-05-06T16:12:56.425Z,13.51
2019-05-06T16:15:25.920Z,13.48
2019-05-06T16:17:55.452Z,13.65
2019-05-06T16:20:24.962Z,13.75
2019-05-06T16:23:03.344Z,13.71
2019-05-06T16:25:32.926Z,13.80
2019-05-06T16:28:02.571Z,13.83
2019-05-06T16:30:33.777Z,13.89
2019-05-06T16:33:04.085Z,13.80
2019-05-06T16:35:34.500Z,13.88
2019-05-06T16:38:04.036Z,14.04
2019-05-06T16:40:33.740Z,14.10
2019-05-06T16:43:03.366Z,14.16
2019-05-06T16:45:32.966Z,14.21
2019-05-06T16:48:03.644Z,14.25
2019-05-06T16:50:33.240Z,14.28
2019-05-06T16:53:02.891Z,14.24
2019-05-06T16:55:55.043Z,14.22
2019-05-06T16:58:24.624Z,14.22
2019-05-06T17:00:54.154Z,14.14
2019-05-06T17:03:42.836Z,14.15
2019-05-06T17:06:18.870Z,14.12
2019-05-06T17:08:48.379Z,14.04
2019-05-06T17:11:28.284Z,14.06
2019-05-06T17:13:49.203Z,13.81
2019-05-06T17:16:18.920Z,13.75
2019-05-06T17:18:48.442Z,13.72
2019-05-06T17:21:17.951Z,13.73
2019-05-06T17:23:47.483Z,13.58
2019-05-06T17:26:17.000Z,13.20
2019-05-06T17:29:18.307Z,13.51
2019-05-06T17:32:02.729Z,13.59
2019-05-06T17:34:35.111Z,13.54
2019-05-06T17:37:12.474Z,13.51
2019-05-06T17:39:42.502Z,13.33
2019-05-06T17:42:13.691Z,13.38
2019-05-06T17:44:43.539Z,13.36
2019-05-06T17:47:24.688Z,13.21
2019-05-06T17:49:54.253Z,13.17
2019-05-06T17:52:23.814Z,13.11
2019-05-06T17:54:53.340Z,12.94
2019-05-06T17:57:22.891Z,12.90
2019-05-06T17:59:52.934Z,13.03
2019-05-06T18:02:24.096Z,13.27
2019-05-06T18:04:53.580Z,13.07
2019-05-06T18:07:23.126Z,12.40
2019-05-06T18:09:52.668Z,11.95
2019-05-06T18:12:23.169Z,11.70
2019-05-06T18:14:53.499Z,11.84
2019-05-06T18:17:23.195Z,11.79
2019-05-06T18:19:52.788Z,11.76
2019-05-06T18:22:22.767Z,12.02
2019-05-06T18:24:52.645Z,12.18
2019-05-06T18:27:22.701Z,12.28
2019-05-06T18:29:53.248Z,12.30
2019-05-06T18:32:23.470Z,12.42
2019-05-06T18:34:53.225Z,12.58
2019-05-06T18:37:23.398Z,12.48
2019-05-06T18:39:53.200Z,12.37
2019-05-06T18:42:23.677Z,12.34
2019-05-06T18:44:54.356Z,12.37
2019-05-06T18:47:23.874Z,12.53
2019-05-06T18:49:53.492Z,12.64
2019-05-06T18:52:23.108Z,12.59
2019-05-06T18:54:52.717Z,12.67
2019-05-06T18:57:22.756Z,12.71
2019-05-06T18:59:53.281Z,12.68
2019-05-06T19:02:23.122Z,12.76
2019-05-06T19:05:13.067Z,12.84
2019-05-06T19:07:43.658Z,12.91
2019-05-06T19:10:33.330Z,12.87
2019-05-06T19:13:02.894Z,12.85
2019-05-06T19:15:33.876Z,12.87
2019-05-06T19:18:03.473Z,12.90
2019-05-06T19:20:33.973Z,12.91
2019-05-06T19:23:03.535Z,12.90
2019-05-06T19:25:34.763Z,13.18
2019-05-06T19:28:04.657Z,13.27
2019-05-06T19:30:34.169Z,13.24
2019-05-06T19:33:03.687Z,13.28
2019-05-06T19:35:36.998Z,13.25
2019-05-06T19:38:05.270Z,13.27
2019-05-06T19:40:34.946Z,13.34
2019-05-06T19:43:05.538Z,13.34
2019-05-06T19:45:35.054Z,13.22
2019-05-06T19:48:04.621Z,13.16
2019-05-06T19:50:36.752Z,13.09
2019-05-06T19:53:05.448Z,13.02
2019-05-06T19:55:34.977Z,12.99
2019-05-06T19:58:04.494Z,12.92
2019-05-06T20:00:34.852Z,12.95
2019-05-06T20:03:04.434Z,12.94
2019-05-06T20:05:54.396Z,12.95
2019-05-06T20:08:37.580Z,12.99
2019-05-06T20:11:13.220Z,13.02
2019-05-06T20:13:43.778Z,13.04
2019-05-06T20:16:13.303Z,13.11
2019-05-06T20:18:42.943Z,13.11
2019-05-06T20:21:12.496Z,13.09
2019-05-06T20:23:42.587Z,13.00
2019-05-06T20:26:13.231Z,13.09
2019-05-06T20:28:43.068Z,13.05
2019-05-06T20:31:12.751Z,13.02
2019-05-06T20:33:42.304Z,12.96
2019-05-06T20:36:12.612Z,12.89
2019-05-06T20:38:42.387Z,12.83
2019-05-06T20:41:12.879Z,12.88
2019-05-06T20:43:42.502Z,12.84
2019-05-06T20:46:12.538Z,12.82
2019-05-06T20:48:43.032Z,12.81
2019-05-06T20:51:12.647Z,12.73
2019-05-06T20:53:43.154Z,12.72
2019-05-06T20:56:12.761Z,12.32
2019-05-06T20:58:42.270Z,12.62
2019-05-06T21:01:12.764Z,12.65
2019-05-06T21:03:42.543Z,12.60
2019-05-06T21:06:13.369Z,12.65
2019-05-06T21:08:43.792Z,12.58
2019-05-06T21:11:25.875Z,12.51
2019-05-06T21:13:44.503Z,12.56
2019-05-06T21:16:14.020Z,12.58
2019-05-06T21:18:43.523Z,12.59
2019-05-06T21:21:13.660Z,12.59
2019-05-06T21:23:43.226Z,12.56
2019-05-06T21:26:13.673Z,12.55
2019-05-06T21:28:46.409Z,12.50
2019-05-06T21:31:15.492Z,12.54
2019-05-06T21:33:44.990Z,12.54
2019-05-06T21:36:14.501Z,12.53
2019-05-06T21:38:44.045Z,12.54
2019-05-06T21:41:13.557Z,12.54
2019-05-06T21:43:49.062Z,12.45
2019-05-06T21:46:14.297Z,12.48
2019-05-06T21:48:43.801Z,12.45
2019-05-06T21:51:13.327Z,12.41
2019-05-06T21:53:42.862Z,12.36
2019-05-06T21:56:13.091Z,12.30
2019-05-06T21:58:42.943Z,12.26
2019-05-06T22:01:12.705Z,12.12
2019-05-06T22:03:43.356Z,12.19
2019-05-06T22:06:13.193Z,12.19
2019-05-06T22:08:42.654Z,12.10
2019-05-06T22:11:12.226Z,12.05
2019-05-06T22:13:42.570Z,12.00
2019-05-06T22:16:12.611Z,11.99
2019-05-06T22:18:43.294Z,11.90
2019-05-06T22:21:19.011Z,11.93
2019-05-06T22:24:07.487Z,11.98
2019-05-06T22:26:37.010Z,11.93
2019-05-06T22:29:06.632Z,11.84
2019-05-06T22:31:36.144Z,11.93
2019-05-06T22:34:05.660Z,11.90
2019-05-06T22:36:35.174Z,11.96
2019-05-06T22:39:06.344Z,11.94
2019-05-06T22:41:37.465Z,12.00
2019-05-06T22:44:13.695Z,11.51
2019-05-06T22:46:38.402Z,12.00
2019-05-06T22:49:07.922Z,11.88
2019-05-06T22:51:37.412Z,11.79
2019-05-06T22:54:06.914Z,11.71
2019-05-06T22:56:36.407Z,11.63
2019-05-06T22:59:06.114Z,11.62
2019-05-06T23:01:54.591Z,11.58
2019-05-06T23:04:26.218Z,11.62
2019-05-06T23:06:55.790Z,11.79
2019-05-06T23:09:25.304Z,11.80
2019-05-06T23:11:54.816Z,11.90
2019-05-06T23:14:31.219Z,11.90
2019-05-06T23:16:55.544Z,11.82
2019-05-06T23:19:25.054Z,11.87
2019-05-06T23:21:55.540Z,11.87
2019-05-06T23:24:25.044Z,11.91
2019-05-06T23:26:54.904Z,11.90
2019-05-06T23:29:24.509Z,11.84
2019-05-06T23:31:54.085Z,11.76
2019-05-06T23:34:24.570Z,11.72
2019-05-06T23:37:25.155Z,11.71
2019-05-06T23:40:37.209Z,11.63
2019-05-06T23:43:43.281Z,11.64
2019-05-06T23:46:49.081Z,11.50
2019-05-06T23:49:54.667Z,11.39
2019-05-06T23:53:02.779Z,11.33
2019-05-06T23:56:08.391Z,11.30
2019-05-06T23:58:37.891Z,11.34
